sensor_id;sensor_type;location;lat;lon;timestamp;P1;durP1;ratioP1;P2;durP2;ratioP2
45206;SDS011;30950;53.086;21.576;2022-11-12T00:01:14;41.30;;;25.38;;
45206;SDS011;30950;53.086;21.576;2022-11-12T00:04:00;39.13;;;25.67;;
45206;SDS011;30950;53.086;21.576;2022-11-12T00:06:46;37.28;;;24.50;;
45206;SDS011;30950;53.086;21.576;2022-11-12T00:09:32;36.10;;;24.73;;
45206;SDS011;30950;53.086;21.576;2022-11-12T00:12:18;33.10;;;26.02;;
45206;SDS011;30950;53.086;21.576;2022-11-12T00:15:04;42.08;;;25.83;;
45206;SDS011;30950;53.086;21.576;2022-11-12T00:17:50;37.53;;;26.27;;
45206;SDS011;30950;53.086;21.576;2022-11-12T00:20:36;37.25;;;24.60;;
45206;SDS011;30950;53.086;21.576;2022-11-12T00:23:22;37.72;;;25.30;;
45206;SDS011;30950;53.086;21.576;2022-11-12T00:26:09;36.22;;;26.10;;
45206;SDS011;30950;53.086;21.576;2022-11-12T00:28:54;39.72;;;27.50;;
45206;SDS011;30950;53.086;21.576;2022-11-12T00:31:40;35.90;;;26.77;;
45206;SDS011;30950;53.086;21.576;2022-11-12T00:34:26;38.58;;;28.48;;
45206;SDS011;30950;53.086;21.576;2022-11-12T00:37:12;40.15;;;27.58;;
45206;SDS011;30950;53.086;21.576;2022-11-12T00:39:58;39.15;;;28.77;;
45206;SDS011;30950;53.086;21.576;2022-11-12T00:42:44;36.03;;;26.30;;
45206;SDS011;30950;53.086;21.576;2022-11-12T00:45:30;36.55;;;25.80;;
45206;SDS011;30950;53.086;21.576;2022-11-12T00:48:16;31.70;;;24.45;;
45206;SDS011;30950;53.086;21.576;2022-11-12T00:51:03;36.42;;;25.70;;
45206;SDS011;30950;53.086;21.576;2022-11-12T00:53:50;39.30;;;26.20;;
45206;SDS011;30950;53.086;21.576;2022-11-12T00:56:35;35.22;;;26.27;;
45206;SDS011;30950;53.086;21.576;2022-11-12T00:59:22;36.25;;;24.35;;
45206;SDS011;30950;53.086;21.576;2022-11-12T01:02:08;34.53;;;26.77;;
45206;SDS011;30950;53.086;21.576;2022-11-12T01:04:54;40.67;;;28.45;;
45206;SDS011;30950;53.086;21.576;2022-11-12T01:07:39;35.65;;;25.80;;
45206;SDS011;30950;53.086;21.576;2022-11-12T01:10:26;33.43;;;24.67;;
45206;SDS011;30950;53.086;21.576;2022-11-12T01:13:11;34.08;;;25.50;;
45206;SDS011;30950;53.086;21.576;2022-11-12T01:15:58;36.92;;;25.60;;
45206;SDS011;30950;53.086;21.576;2022-11-12T01:18:51;36.90;;;26.17;;
45206;SDS011;30950;53.086;21.576;2022-11-12T01:21:40;36.88;;;26.08;;
45206;SDS011;30950;53.086;21.576;2022-11-12T01:24:27;35.45;;;26.35;;
45206;SDS011;30950;53.086;21.576;2022-11-12T01:27:13;35.70;;;25.17;;
45206;SDS011;30950;53.086;21.576;2022-11-12T01:29:59;36.13;;;25.75;;
45206;SDS011;30950;53.086;21.576;2022-11-12T01:32:45;31.58;;;24.70;;
45206;SDS011;30950;53.086;21.576;2022-11-12T01:35:31;34.38;;;24.10;;
45206;SDS011;30950;53.086;21.576;2022-11-12T01:38:16;33.17;;;24.65;;
45206;SDS011;30950;53.086;21.576;2022-11-12T01:41:03;34.80;;;23.88;;
45206;SDS011;30950;53.086;21.576;2022-11-12T01:52:58;30.27;;;22.38;;
45206;SDS011;30950;53.086;21.576;2022-11-12T01:55:50;32.47;;;24.17;;
45206;SDS011;30950;53.086;21.576;2022-11-12T01:58:37;29.90;;;22.85;;
45206;SDS011;30950;53.086;21.576;2022-11-12T02:01:24;34.80;;;24.95;;
45206;SDS011;30950;53.086;21.576;2022-11-12T02:04:10;27.05;;;21.75;;
45206;SDS011;30950;53.086;21.576;2022-11-12T02:06:56;34.83;;;24.83;;
45206;SDS011;30950;53.086;21.576;2022-11-12T02:09:43;33.78;;;24.13;;
45206;SDS011;30950;53.086;21.576;2022-11-12T02:12:29;33.50;;;23.10;;
45206;SDS011;30950;53.086;21.576;2022-11-12T02:15:35;36.03;;;24.30;;
45206;SDS011;30950;53.086;21.576;2022-11-12T02:18:22;33.08;;;22.00;;
45206;SDS011;30950;53.086;21.576;2022-11-12T02:21:08;29.70;;;21.63;;
45206;SDS011;30950;53.086;21.576;2022-11-12T02:26:45;28.60;;;21.05;;
45206;SDS011;30950;53.086;21.576;2022-11-12T02:29:33;29.15;;;21.05;;
45206;SDS011;30950;53.086;21.576;2022-11-12T02:32:18;29.48;;;21.38;;
45206;SDS011;30950;53.086;21.576;2022-11-12T02:35:04;26.40;;;20.80;;
45206;SDS011;30950;53.086;21.576;2022-11-12T02:37:50;27.52;;;20.42;;
45206;SDS011;30950;53.086;21.576;2022-11-12T02:40:36;25.77;;;19.92;;
45206;SDS011;30950;53.086;21.576;2022-11-12T02:43:22;34.00;;;21.35;;
45206;SDS011;30950;53.086;21.576;2022-11-12T02:46:09;29.48;;;21.45;;
45206;SDS011;30950;53.086;21.576;2022-11-12T02:51:42;28.95;;;19.92;;
45206;SDS011;30950;53.086;21.576;2022-11-12T02:54:28;28.00;;;21.05;;
45206;SDS011;30950;53.086;21.576;2022-11-12T02:57:13;27.52;;;19.67;;
45206;SDS011;30950;53.086;21.576;2022-11-12T02:59:59;26.70;;;19.92;;
45206;SDS011;30950;53.086;21.576;2022-11-12T03:02:45;26.63;;;19.73;;
45206;SDS011;30950;53.086;21.576;2022-11-12T03:05:43;26.23;;;19.33;;
45206;SDS011;30950;53.086;21.576;2022-11-12T03:08:30;29.20;;;19.35;;
45206;SDS011;30950;53.086;21.576;2022-11-12T03:11:16;28.30;;;20.42;;
45206;SDS011;30950;53.086;21.576;2022-11-12T03:14:03;26.23;;;18.75;;
45206;SDS011;30950;53.086;21.576;2022-11-12T03:16:48;31.52;;;19.98;;
45206;SDS011;30950;53.086;21.576;2022-11-12T03:19:35;27.38;;;18.08;;
45206;SDS011;30950;53.086;21.576;2022-11-12T03:22:20;23.90;;;18.15;;
45206;SDS011;30950;53.086;21.576;2022-11-12T03:25:06;28.85;;;17.92;;
45206;SDS011;30950;53.086;21.576;2022-11-12T03:30:48;27.60;;;18.48;;
45206;SDS011;30950;53.086;21.576;2022-11-12T03:33:34;22.65;;;17.58;;
45206;SDS011;30950;53.086;21.576;2022-11-12T03:36:20;23.30;;;17.00;;
45206;SDS011;30950;53.086;21.576;2022-11-12T03:39:05;24.75;;;17.35;;
45206;SDS011;30950;53.086;21.576;2022-11-12T03:41:52;23.52;;;17.63;;
45206;SDS011;30950;53.086;21.576;2022-11-12T03:44:37;23.92;;;17.10;;
45206;SDS011;30950;53.086;21.576;2022-11-12T03:47:23;23.38;;;17.73;;
45206;SDS011;30950;53.086;21.576;2022-11-12T03:50:09;28.88;;;17.23;;
45206;SDS011;30950;53.086;21.576;2022-11-12T03:52:57;23.80;;;16.98;;
45206;SDS011;30950;53.086;21.576;2022-11-12T03:55:43;23.50;;;17.30;;
45206;SDS011;30950;53.086;21.576;2022-11-12T03:58:29;23.00;;;16.20;;
45206;SDS011;30950;53.086;21.576;2022-11-12T04:01:15;26.50;;;17.20;;
45206;SDS011;30950;53.086;21.576;2022-11-12T04:04:01;23.33;;;17.27;;
45206;SDS011;30950;53.086;21.576;2022-11-12T04:06:47;21.13;;;15.93;;
45206;SDS011;30950;53.086;21.576;2022-11-12T04:09:52;23.50;;;16.17;;
45206;SDS011;30950;53.086;21.576;2022-11-12T04:12:38;23.25;;;16.25;;
45206;SDS011;30950;53.086;21.576;2022-11-12T04:15:43;22.33;;;16.30;;
45206;SDS011;30950;53.086;21.576;2022-11-12T04:18:28;23.63;;;15.75;;
45206;SDS011;30950;53.086;21.576;2022-11-12T04:24:36;21.10;;;16.30;;
45206;SDS011;30950;53.086;21.576;2022-11-12T04:27:42;22.45;;;17.05;;
45206;SDS011;30950;53.086;21.576;2022-11-12T04:30:28;22.15;;;16.90;;
45206;SDS011;30950;53.086;21.576;2022-11-12T04:33:14;23.05;;;16.85;;
45206;SDS011;30950;53.086;21.576;2022-11-12T04:36:00;22.33;;;16.30;;
45206;SDS011;30950;53.086;21.576;2022-11-12T04:38:46;19.65;;;16.02;;
45206;SDS011;30950;53.086;21.576;2022-11-12T04:41:32;24.00;;;15.93;;
45206;SDS011;30950;53.086;21.576;2022-11-12T04:44:37;19.63;;;16.40;;
45206;SDS011;30950;53.086;21.576;2022-11-12T04:47:42;22.65;;;16.50;;
45206;SDS011;30950;53.086;21.576;2022-11-12T04:50:28;23.05;;;16.42;;
45206;SDS011;30950;53.086;21.576;2022-11-12T04:53:14;21.73;;;16.23;;
45206;SDS011;30950;53.086;21.576;2022-11-12T04:56:01;20.88;;;15.57;;
45206;SDS011;30950;53.086;21.576;2022-11-12T04:58:47;23.58;;;16.20;;
45206;SDS011;30950;53.086;21.576;2022-11-12T05:01:33;24.73;;;16.77;;
45206;SDS011;30950;53.086;21.576;2022-11-12T05:04:19;20.92;;;15.98;;
45206;SDS011;30950;53.086;21.576;2022-11-12T05:07:06;24.52;;;17.10;;
45206;SDS011;30950;53.086;21.576;2022-11-12T05:09:52;22.65;;;16.90;;
45206;SDS011;30950;53.086;21.576;2022-11-12T05:12:38;21.80;;;17.48;;
45206;SDS011;30950;53.086;21.576;2022-11-12T05:15:24;21.50;;;17.55;;
45206;SDS011;30950;53.086;21.576;2022-11-12T05:18:10;22.67;;;16.38;;
45206;SDS011;30950;53.086;21.576;2022-11-12T05:20:55;24.17;;;16.10;;
45206;SDS011;30950;53.086;21.576;2022-11-12T05:23:42;23.63;;;16.75;;
45206;SDS011;30950;53.086;21.576;2022-11-12T05:26:27;23.85;;;17.98;;
45206;SDS011;30950;53.086;21.576;2022-11-12T05:29:15;24.33;;;17.95;;
45206;SDS011;30950;53.086;21.576;2022-11-12T05:32:01;24.23;;;18.27;;
45206;SDS011;30950;53.086;21.576;2022-11-12T05:34:48;26.40;;;17.65;;
45206;SDS011;30950;53.086;21.576;2022-11-12T05:37:33;25.15;;;18.70;;
45206;SDS011;30950;53.086;21.576;2022-11-12T05:40:19;28.05;;;18.65;;
45206;SDS011;30950;53.086;21.576;2022-11-12T05:43:05;24.60;;;19.13;;
45206;SDS011;30950;53.086;21.576;2022-11-12T05:45:51;25.05;;;19.88;;
45206;SDS011;30950;53.086;21.576;2022-11-12T05:48:39;28.17;;;20.15;;
45206;SDS011;30950;53.086;21.576;2022-11-12T05:51:25;24.27;;;17.90;;
45206;SDS011;30950;53.086;21.576;2022-11-12T05:54:11;25.25;;;18.00;;
45206;SDS011;30950;53.086;21.576;2022-11-12T05:56:57;27.27;;;18.73;;
45206;SDS011;30950;53.086;21.576;2022-11-12T05:59:42;21.60;;;17.05;;
45206;SDS011;30950;53.086;21.576;2022-11-12T06:02:29;25.00;;;17.60;;
45206;SDS011;30950;53.086;21.576;2022-11-12T06:05:14;25.30;;;17.13;;
45206;SDS011;30950;53.086;21.576;2022-11-12T06:08:03;22.92;;;16.38;;
45206;SDS011;30950;53.086;21.576;2022-11-12T06:10:50;22.25;;;16.08;;
45206;SDS011;30950;53.086;21.576;2022-11-12T06:13:37;22.17;;;16.05;;
45206;SDS011;30950;53.086;21.576;2022-11-12T06:16:23;24.75;;;17.88;;
45206;SDS011;30950;53.086;21.576;2022-11-12T06:19:10;23.85;;;18.45;;
45206;SDS011;30950;53.086;21.576;2022-11-12T06:21:56;24.33;;;17.52;;
45206;SDS011;30950;53.086;21.576;2022-11-12T06:24:42;26.85;;;16.77;;
45206;SDS011;30950;53.086;21.576;2022-11-12T06:27:28;23.58;;;17.67;;
45206;SDS011;30950;53.086;21.576;2022-11-12T06:30:14;23.15;;;16.55;;
45206;SDS011;30950;53.086;21.576;2022-11-12T06:33:00;24.77;;;17.83;;
45206;SDS011;30950;53.086;21.576;2022-11-12T06:35:45;22.92;;;18.63;;
45206;SDS011;30950;53.086;21.576;2022-11-12T06:38:32;23.38;;;16.52;;
45206;SDS011;30950;53.086;21.576;2022-11-12T06:41:19;28.70;;;20.05;;
45206;SDS011;30950;53.086;21.576;2022-11-12T06:44:05;21.02;;;16.10;;
45206;SDS011;30950;53.086;21.576;2022-11-12T06:46:51;76.28;;;42.67;;
45206;SDS011;30950;53.086;21.576;2022-11-12T06:49:37;73.97;;;48.75;;
45206;SDS011;30950;53.086;21.576;2022-11-12T06:52:23;23.25;;;17.15;;
45206;SDS011;30950;53.086;21.576;2022-11-12T06:55:09;23.63;;;17.23;;
45206;SDS011;30950;53.086;21.576;2022-11-12T06:57:55;25.15;;;16.65;;
45206;SDS011;30950;53.086;21.576;2022-11-12T07:00:41;23.48;;;17.98;;
45206;SDS011;30950;53.086;21.576;2022-11-12T07:03:27;24.90;;;17.23;;
45206;SDS011;30950;53.086;21.576;2022-11-12T07:06:14;23.17;;;16.88;;
45206;SDS011;30950;53.086;21.576;2022-11-12T07:09:04;23.08;;;16.67;;
45206;SDS011;30950;53.086;21.576;2022-11-12T07:11:50;24.92;;;17.45;;
45206;SDS011;30950;53.086;21.576;2022-11-12T07:14:35;24.02;;;17.45;;
45206;SDS011;30950;53.086;21.576;2022-11-12T07:17:21;20.40;;;16.30;;
45206;SDS011;30950;53.086;21.576;2022-11-12T07:20:07;23.25;;;17.10;;
45206;SDS011;30950;53.086;21.576;2022-11-12T07:22:53;30.27;;;25.13;;
45206;SDS011;30950;53.086;21.576;2022-11-12T07:25:43;32.95;;;24.45;;
45206;SDS011;30950;53.086;21.576;2022-11-12T07:28:29;26.48;;;18.10;;
45206;SDS011;30950;53.086;21.576;2022-11-12T07:31:17;27.53;;;19.30;;
45206;SDS011;30950;53.086;21.576;2022-11-12T07:34:03;21.92;;;17.42;;
45206;SDS011;30950;53.086;21.576;2022-11-12T07:36:49;25.65;;;17.23;;
45206;SDS011;30950;53.086;21.576;2022-11-12T07:39:36;24.35;;;18.27;;
45206;SDS011;30950;53.086;21.576;2022-11-12T07:42:22;20.98;;;16.27;;
45206;SDS011;30950;53.086;21.576;2022-11-12T07:45:08;21.45;;;16.55;;
45206;SDS011;30950;53.086;21.576;2022-11-12T07:47:57;22.03;;;16.23;;
45206;SDS011;30950;53.086;21.576;2022-11-12T07:50:43;23.13;;;17.00;;
45206;SDS011;30950;53.086;21.576;2022-11-12T07:53:29;24.08;;;18.55;;
45206;SDS011;30950;53.086;21.576;2022-11-12T07:56:16;27.58;;;18.98;;
45206;SDS011;30950;53.086;21.576;2022-11-12T07:59:04;22.15;;;16.65;;
45206;SDS011;30950;53.086;21.576;2022-11-12T08:01:51;22.83;;;18.45;;
45206;SDS011;30950;53.086;21.576;2022-11-12T08:04:37;21.98;;;17.23;;
45206;SDS011;30950;53.086;21.576;2022-11-12T08:07:23;22.58;;;15.23;;
45206;SDS011;30950;53.086;21.576;2022-11-12T08:10:09;24.05;;;17.05;;
45206;SDS011;30950;53.086;21.576;2022-11-12T08:12:55;27.88;;;22.65;;
45206;SDS011;30950;53.086;21.576;2022-11-12T08:15:41;24.80;;;18.63;;
45206;SDS011;30950;53.086;21.576;2022-11-12T08:18:35;25.80;;;18.55;;
45206;SDS011;30950;53.086;21.576;2022-11-12T08:21:21;24.48;;;18.50;;
45206;SDS011;30950;53.086;21.576;2022-11-12T08:24:07;27.15;;;21.77;;
45206;SDS011;30950;53.086;21.576;2022-11-12T08:26:53;23.25;;;18.30;;
45206;SDS011;30950;53.086;21.576;2022-11-12T08:29:38;23.05;;;17.70;;
45206;SDS011;30950;53.086;21.576;2022-11-12T08:32:25;20.50;;;15.83;;
45206;SDS011;30950;53.086;21.576;2022-11-12T08:35:11;27.92;;;19.65;;
45206;SDS011;30950;53.086;21.576;2022-11-12T08:37:58;38.05;;;30.65;;
45206;SDS011;30950;53.086;21.576;2022-11-12T08:40:48;22.48;;;15.35;;
45206;SDS011;30950;53.086;21.576;2022-11-12T08:43:35;18.80;;;14.95;;
45206;SDS011;30950;53.086;21.576;2022-11-12T08:46:21;23.10;;;16.65;;
45206;SDS011;30950;53.086;21.576;2022-11-12T08:49:07;39.90;;;31.77;;
45206;SDS011;30950;53.086;21.576;2022-11-12T08:51:54;21.13;;;14.63;;
45206;SDS011;30950;53.086;21.576;2022-11-12T08:54:41;22.38;;;15.13;;
45206;SDS011;30950;53.086;21.576;2022-11-12T08:57:27;20.60;;;14.80;;
45206;SDS011;30950;53.086;21.576;2022-11-12T09:00:13;16.63;;;11.20;;
45206;SDS011;30950;53.086;21.576;2022-11-12T09:03:00;22.75;;;15.48;;
45206;SDS011;30950;53.086;21.576;2022-11-12T09:05:49;21.23;;;16.35;;
45206;SDS011;30950;53.086;21.576;2022-11-12T09:08:35;23.63;;;17.38;;
45206;SDS011;30950;53.086;21.576;2022-11-12T09:11:22;28.95;;;19.90;;
45206;SDS011;30950;53.086;21.576;2022-11-12T09:14:07;21.38;;;16.52;;
45206;SDS011;30950;53.086;21.576;2022-11-12T09:16:54;17.55;;;14.57;;
45206;SDS011;30950;53.086;21.576;2022-11-12T09:19:40;21.52;;;15.13;;
45206;SDS011;30950;53.086;21.576;2022-11-12T09:25:13;20.92;;;14.65;;
45206;SDS011;30950;53.086;21.576;2022-11-12T09:28:15;20.42;;;13.95;;
45206;SDS011;30950;53.086;21.576;2022-11-12T09:31:02;18.60;;;14.35;;
45206;SDS011;30950;53.086;21.576;2022-11-12T09:33:48;16.65;;;13.18;;
45206;SDS011;30950;53.086;21.576;2022-11-12T09:36:34;20.45;;;14.57;;
45206;SDS011;30950;53.086;21.576;2022-11-12T09:39:24;18.23;;;13.52;;
45206;SDS011;30950;53.086;21.576;2022-11-12T09:42:12;19.55;;;15.02;;
45206;SDS011;30950;53.086;21.576;2022-11-12T09:47:53;20.45;;;14.35;;
45206;SDS011;30950;53.086;21.576;2022-11-12T09:50:57;22.10;;;14.55;;
45206;SDS011;30950;53.086;21.576;2022-11-12T09:54:08;20.13;;;13.40;;
45206;SDS011;30950;53.086;21.576;2022-11-12T09:57:03;17.00;;;12.80;;
45206;SDS011;30950;53.086;21.576;2022-11-12T09:59:54;16.50;;;12.60;;
45206;SDS011;30950;53.086;21.576;2022-11-12T10:02:47;17.08;;;12.60;;
45206;SDS011;30950;53.086;21.576;2022-11-12T10:05:46;18.85;;;12.98;;
45206;SDS011;30950;53.086;21.576;2022-11-12T10:11:36;18.65;;;13.55;;
45206;SDS011;30950;53.086;21.576;2022-11-12T10:24:25;18.20;;;11.25;;
45206;SDS011;30950;53.086;21.576;2022-11-12T10:27:20;17.75;;;11.20;;
45206;SDS011;30950;53.086;21.576;2022-11-12T10:30:12;16.98;;;12.00;;
45206;SDS011;30950;53.086;21.576;2022-11-12T10:33:04;19.83;;;12.23;;
45206;SDS011;30950;53.086;21.576;2022-11-12T10:35:50;16.38;;;11.00;;
45206;SDS011;30950;53.086;21.576;2022-11-12T10:38:37;16.65;;;10.48;;
45206;SDS011;30950;53.086;21.576;2022-11-12T10:41:30;19.85;;;14.18;;
45206;SDS011;30950;53.086;21.576;2022-11-12T10:44:17;14.70;;;9.90;;
45206;SDS011;30950;53.086;21.576;2022-11-12T10:53:03;17.55;;;11.95;;
45206;SDS011;30950;53.086;21.576;2022-11-12T10:55:55;19.15;;;12.73;;
45206;SDS011;30950;53.086;21.576;2022-11-12T10:58:43;17.45;;;13.43;;
45206;SDS011;30950;53.086;21.576;2022-11-12T11:01:28;18.48;;;12.50;;
45206;SDS011;30950;53.086;21.576;2022-11-12T11:07:23;18.48;;;13.43;;
45206;SDS011;30950;53.086;21.576;2022-11-12T11:10:22;15.18;;;10.35;;
45206;SDS011;30950;53.086;21.576;2022-11-12T11:13:26;18.42;;;12.85;;
45206;SDS011;30950;53.086;21.576;2022-11-12T11:16:13;15.57;;;11.60;;
45206;SDS011;30950;53.086;21.576;2022-11-12T11:19:07;35.50;;;22.35;;
45206;SDS011;30950;53.086;21.576;2022-11-12T11:21:56;14.80;;;10.43;;
45206;SDS011;30950;53.086;21.576;2022-11-12T11:30:46;17.52;;;12.73;;
45206;SDS011;30950;53.086;21.576;2022-11-12T11:34:04;22.83;;;17.02;;
45206;SDS011;30950;53.086;21.576;2022-11-12T11:37:29;29.83;;;21.58;;
45206;SDS011;30950;53.086;21.576;2022-11-12T11:40:25;20.65;;;15.10;;
45206;SDS011;30950;53.086;21.576;2022-11-12T11:53:00;25.60;;;17.30;;
45206;SDS011;30950;53.086;21.576;2022-11-12T11:56:06;19.65;;;13.60;;
45206;SDS011;30950;53.086;21.576;2022-11-12T12:08:21;19.52;;;13.52;;
45206;SDS011;30950;53.086;21.576;2022-11-12T12:20:53;25.33;;;16.10;;
45206;SDS011;30950;53.086;21.576;2022-11-12T12:27:12;25.40;;;17.17;;
45206;SDS011;30950;53.086;21.576;2022-11-12T12:30:14;21.10;;;14.90;;
45206;SDS011;30950;53.086;21.576;2022-11-12T12:36:41;33.30;;;20.08;;
45206;SDS011;30950;53.086;21.576;2022-11-12T12:42:56;24.75;;;16.33;;
45206;SDS011;30950;53.086;21.576;2022-11-12T12:45:59;24.70;;;16.77;;
45206;SDS011;30950;53.086;21.576;2022-11-12T12:48:46;25.50;;;16.02;;
45206;SDS011;30950;53.086;21.576;2022-11-12T12:51:35;22.20;;;16.17;;
45206;SDS011;30950;53.086;21.576;2022-11-12T13:00:37;20.77;;;14.88;;
45206;SDS011;30950;53.086;21.576;2022-11-12T13:06:38;18.63;;;14.00;;
45206;SDS011;30950;53.086;21.576;2022-11-12T13:09:37;27.27;;;17.55;;
45206;SDS011;30950;53.086;21.576;2022-11-12T13:12:50;22.13;;;16.75;;
45206;SDS011;30950;53.086;21.576;2022-11-12T13:15:48;22.52;;;17.30;;
45206;SDS011;30950;53.086;21.576;2022-11-12T13:21:24;25.45;;;17.42;;
45206;SDS011;30950;53.086;21.576;2022-11-12T13:24:09;33.92;;;19.55;;
45206;SDS011;30950;53.086;21.576;2022-11-12T13:26:59;22.15;;;16.00;;
45206;SDS011;30950;53.086;21.576;2022-11-12T13:29:45;22.92;;;17.55;;
45206;SDS011;30950;53.086;21.576;2022-11-12T13:35:36;27.50;;;19.40;;
45206;SDS011;30950;53.086;21.576;2022-11-12T13:38:24;26.95;;;18.15;;
45206;SDS011;30950;53.086;21.576;2022-11-12T13:41:14;25.52;;;20.33;;
45206;SDS011;30950;53.086;21.576;2022-11-12T13:44:25;29.70;;;21.95;;
45206;SDS011;30950;53.086;21.576;2022-11-12T13:47:14;28.77;;;19.63;;
45206;SDS011;30950;53.086;21.576;2022-11-12T13:50:05;24.80;;;18.05;;
45206;SDS011;30950;53.086;21.576;2022-11-12T13:52:54;28.02;;;18.17;;
45206;SDS011;30950;53.086;21.576;2022-11-12T13:55:46;27.83;;;18.50;;
45206;SDS011;30950;53.086;21.576;2022-11-12T13:58:33;29.20;;;19.13;;
45206;SDS011;30950;53.086;21.576;2022-11-12T14:01:21;26.17;;;18.42;;
45206;SDS011;30950;53.086;21.576;2022-11-12T14:04:18;29.27;;;20.13;;
45206;SDS011;30950;53.086;21.576;2022-11-12T14:10:33;31.98;;;21.67;;
45206;SDS011;30950;53.086;21.576;2022-11-12T14:17:29;36.53;;;25.77;;
45206;SDS011;30950;53.086;21.576;2022-11-12T14:23:10;39.05;;;29.20;;
45206;SDS011;30950;53.086;21.576;2022-11-12T14:26:06;32.63;;;23.25;;
45206;SDS011;30950;53.086;21.576;2022-11-12T14:28:54;33.22;;;23.83;;
45206;SDS011;30950;53.086;21.576;2022-11-12T14:31:41;30.35;;;22.08;;
45206;SDS011;30950;53.086;21.576;2022-11-12T14:34:28;32.78;;;22.27;;
45206;SDS011;30950;53.086;21.576;2022-11-12T14:37:35;32.33;;;21.83;;
45206;SDS011;30950;53.086;21.576;2022-11-12T14:40:28;33.00;;;22.25;;
45206;SDS011;30950;53.086;21.576;2022-11-12T14:43:25;37.03;;;23.65;;
45206;SDS011;30950;53.086;21.576;2022-11-12T14:46:26;33.10;;;23.17;;
45206;SDS011;30950;53.086;21.576;2022-11-12T14:49:27;30.83;;;21.65;;
45206;SDS011;30950;53.086;21.576;2022-11-12T14:55:10;35.42;;;23.35;;
45206;SDS011;30950;53.086;21.576;2022-11-12T14:57:59;38.55;;;25.23;;
45206;SDS011;30950;53.086;21.576;2022-11-12T15:00:48;37.50;;;25.67;;
45206;SDS011;30950;53.086;21.576;2022-11-12T15:03:35;36.75;;;24.85;;
45206;SDS011;30950;53.086;21.576;2022-11-12T15:06:31;35.10;;;24.70;;
45206;SDS011;30950;53.086;21.576;2022-11-12T15:09:18;38.35;;;25.52;;
45206;SDS011;30950;53.086;21.576;2022-11-12T15:12:21;39.33;;;26.15;;
45206;SDS011;30950;53.086;21.576;2022-11-12T15:15:16;57.30;;;25.98;;
45206;SDS011;30950;53.086;21.576;2022-11-12T15:18:12;40.33;;;27.83;;
45206;SDS011;30950;53.086;21.576;2022-11-12T15:26:57;35.28;;;22.90;;
45206;SDS011;30950;53.086;21.576;2022-11-12T15:29:45;32.33;;;22.38;;
45206;SDS011;30950;53.086;21.576;2022-11-12T15:32:32;32.05;;;21.10;;
45206;SDS011;30950;53.086;21.576;2022-11-12T15:35:40;34.13;;;23.20;;
45206;SDS011;30950;53.086;21.576;2022-11-12T15:38:30;36.20;;;25.83;;
45206;SDS011;30950;53.086;21.576;2022-11-12T15:44:10;43.85;;;29.52;;
45206;SDS011;30950;53.086;21.576;2022-11-12T15:46:57;45.63;;;30.98;;
45206;SDS011;30950;53.086;21.576;2022-11-12T15:49:47;45.33;;;30.05;;
45206;SDS011;30950;53.086;21.576;2022-11-12T15:52:34;48.88;;;31.85;;
45206;SDS011;30950;53.086;21.576;2022-11-12T15:55:20;50.70;;;34.50;;
45206;SDS011;30950;53.086;21.576;2022-11-12T15:58:06;53.70;;;34.65;;
45206;SDS011;30950;53.086;21.576;2022-11-12T16:01:11;52.60;;;32.78;;
45206;SDS011;30950;53.086;21.576;2022-11-12T16:03:57;47.47;;;32.95;;
45206;SDS011;30950;53.086;21.576;2022-11-12T16:06:43;54.38;;;34.60;;
45206;SDS011;30950;53.086;21.576;2022-11-12T16:09:29;50.53;;;34.30;;
45206;SDS011;30950;53.086;21.576;2022-11-12T16:12:15;47.97;;;32.42;;
45206;SDS011;30950;53.086;21.576;2022-11-12T16:15:02;44.58;;;30.25;;
45206;SDS011;30950;53.086;21.576;2022-11-12T16:17:48;42.13;;;30.00;;
45206;SDS011;30950;53.086;21.576;2022-11-12T16:20:35;43.17;;;30.17;;
45206;SDS011;30950;53.086;21.576;2022-11-12T16:23:21;44.25;;;31.15;;
45206;SDS011;30950;53.086;21.576;2022-11-12T16:26:07;39.60;;;27.45;;
45206;SDS011;30950;53.086;21.576;2022-11-12T16:28:56;48.03;;;31.10;;
45206;SDS011;30950;53.086;21.576;2022-11-12T16:31:46;47.63;;;32.38;;
45206;SDS011;30950;53.086;21.576;2022-11-12T16:34:31;42.15;;;31.27;;
45206;SDS011;30950;53.086;21.576;2022-11-12T16:37:18;50.20;;;34.73;;
45206;SDS011;30950;53.086;21.576;2022-11-12T16:40:04;58.50;;;39.55;;
45206;SDS011;30950;53.086;21.576;2022-11-12T16:42:56;44.28;;;30.10;;
45206;SDS011;30950;53.086;21.576;2022-11-12T16:45:42;45.72;;;30.65;;
45206;SDS011;30950;53.086;21.576;2022-11-12T16:48:29;41.95;;;28.92;;
45206;SDS011;30950;53.086;21.576;2022-11-12T16:51:17;43.10;;;28.52;;
45206;SDS011;30950;53.086;21.576;2022-11-12T16:54:04;42.15;;;30.17;;
45206;SDS011;30950;53.086;21.576;2022-11-12T16:56:50;41.05;;;29.05;;
45206;SDS011;30950;53.086;21.576;2022-11-12T16:59:36;41.23;;;27.40;;
45206;SDS011;30950;53.086;21.576;2022-11-12T17:02:22;42.35;;;27.73;;
45206;SDS011;30950;53.086;21.576;2022-11-12T17:05:16;35.22;;;25.00;;
45206;SDS011;30950;53.086;21.576;2022-11-12T17:08:04;39.72;;;27.15;;
45206;SDS011;30950;53.086;21.576;2022-11-12T17:10:51;40.78;;;27.95;;
45206;SDS011;30950;53.086;21.576;2022-11-12T17:13:38;44.88;;;30.38;;
45206;SDS011;30950;53.086;21.576;2022-11-12T17:16:24;42.10;;;29.15;;
45206;SDS011;30950;53.086;21.576;2022-11-12T17:19:12;44.85;;;30.00;;
45206;SDS011;30950;53.086;21.576;2022-11-12T17:22:01;38.70;;;28.73;;
45206;SDS011;30950;53.086;21.576;2022-11-12T17:24:49;44.75;;;31.42;;
45206;SDS011;30950;53.086;21.576;2022-11-12T17:27:36;44.55;;;30.30;;
45206;SDS011;30950;53.086;21.576;2022-11-12T17:30:22;43.92;;;28.60;;
45206;SDS011;30950;53.086;21.576;2022-11-12T17:33:08;46.50;;;29.50;;
45206;SDS011;30950;53.086;21.576;2022-11-12T17:35:54;41.33;;;29.08;;
45206;SDS011;30950;53.086;21.576;2022-11-12T17:38:46;39.58;;;28.73;;
45206;SDS011;30950;53.086;21.576;2022-11-12T17:41:32;44.15;;;28.60;;
45206;SDS011;30950;53.086;21.576;2022-11-12T17:44:19;49.53;;;33.58;;
45206;SDS011;30950;53.086;21.576;2022-11-12T17:47:05;45.03;;;30.20;;
45206;SDS011;30950;53.086;21.576;2022-11-12T17:49:51;55.40;;;35.35;;
45206;SDS011;30950;53.086;21.576;2022-11-12T17:52:37;44.95;;;31.67;;
45206;SDS011;30950;53.086;21.576;2022-11-12T17:55:23;47.80;;;30.10;;
45206;SDS011;30950;53.086;21.576;2022-11-12T17:58:09;44.60;;;27.50;;
45206;SDS011;30950;53.086;21.576;2022-11-12T18:01:02;39.30;;;27.98;;
45206;SDS011;30950;53.086;21.576;2022-11-12T18:03:52;42.03;;;25.55;;
45206;SDS011;30950;53.086;21.576;2022-11-12T18:06:40;37.00;;;24.10;;
45206;SDS011;30950;53.086;21.576;2022-11-12T18:09:29;35.35;;;24.50;;
45206;SDS011;30950;53.086;21.576;2022-11-12T18:12:43;39.65;;;25.95;;
45206;SDS011;30950;53.086;21.576;2022-11-12T18:15:30;40.00;;;27.33;;
45206;SDS011;30950;53.086;21.576;2022-11-12T18:18:16;40.35;;;25.38;;
45206;SDS011;30950;53.086;21.576;2022-11-12T18:21:04;42.72;;;27.30;;
45206;SDS011;30950;53.086;21.576;2022-11-12T18:23:50;44.53;;;29.73;;